createdAt,value
2017-12-06T00:00:04.556Z,1031.14
2017-12-06T00:05:03.152Z,1030.93
2017-12-06T00:10:02.706Z,1031.01
2017-12-06T00:15:03.345Z,1031.03
2017-12-06T00:20:02.977Z,1030.99
2017-12-06T00:25:03.405Z,1030.99
2017-12-06T00:30:02.987Z,1030.86
2017-12-06T00:35:03.596Z,1030.87
2017-12-06T00:40:03.023Z,1030.85
2017-12-06T00:45:03.530Z,1030.85
2017-12-06T00:50:02.932Z,1030.8
2017-12-06T00:55:03.311Z,1030.78
2017-12-06T01:00:02.880Z,1030.8
2017-12-06T01:05:03.006Z,1030.74
2017-12-06T01:10:03.610Z,1030.69
2017-12-06T01:15:02.935Z,1030.72
2017-12-06T01:20:03.489Z,1030.76
2017-12-06T01:25:02.895Z,1030.64
2017-12-06T01:30:03.293Z,1030.69
2017-12-06T01:35:02.803Z,1030.67
2017-12-06T01:40:03.412Z,1030.64
2017-12-06T01:45:02.957Z,1030.69
2017-12-06T01:50:03.341Z,1030.59
2017-12-06T01:55:02.756Z,1030.64
2017-12-06T02:00:03.166Z,1030.53
2017-12-06T02:05:02.748Z,1030.57
2017-12-06T02:10:03.375Z,1030.51
2017-12-06T02:15:03.004Z,1030.59
2017-12-06T02:20:03.403Z,1030.53
2017-12-06T02:25:02.815Z,1030.49
2017-12-06T02:30:03.438Z,1030.51
2017-12-06T02:35:02.985Z,1030.5
2017-12-06T02:40:03.609Z,1030.5
2017-12-06T02:45:03.266Z,1030.38
2017-12-06T02:50:02.773Z,1030.32
2017-12-06T02:55:03.310Z,1030.32
2017-12-06T03:00:02.866Z,1030.15
2017-12-06T03:05:03.381Z,1030.14
2017-12-06T03:10:03.006Z,1030.04
2017-12-06T03:15:03.465Z,1030.06
2017-12-06T03:20:02.828Z,1030.04
2017-12-06T03:25:03.242Z,1030
2017-12-06T03:30:03.635Z,1029.95
2017-12-06T03:35:03.136Z,1030
2017-12-06T03:40:03.630Z,1029.83
2017-12-06T03:45:03.340Z,1029.8
2017-12-06T03:50:02.897Z,1029.79
2017-12-06T03:55:03.552Z,1029.83
2017-12-06T04:00:03.157Z,1029.63
2017-12-06T04:05:03.689Z,1029.61
2017-12-06T04:10:03.344Z,1029.56
2017-12-06T04:15:02.771Z,1029.63
2017-12-06T04:20:03.259Z,1029.56
2017-12-06T04:25:02.836Z,1029.57
2017-12-06T04:30:03.259Z,1029.69
2017-12-06T04:35:02.839Z,1029.75
2017-12-06T04:40:03.498Z,1029.64
2017-12-06T04:45:02.962Z,1029.72
2017-12-06T04:50:03.473Z,1029.53
2017-12-06T04:55:03.153Z,1029.46
2017-12-06T05:00:03.647Z,1029.31
2017-12-06T05:05:03.012Z,1029.23
2017-12-06T05:10:03.662Z,1029.28
2017-12-06T05:15:03.024Z,1029.22
2017-12-06T05:20:03.545Z,1029.18
2017-12-06T05:25:03.161Z,1029.17
2017-12-06T05:30:03.236Z,1029.18
2017-12-06T05:35:03.772Z,1029.14
2017-12-06T05:40:03.384Z,1029.13
2017-12-06T05:45:02.960Z,1029.05
2017-12-06T05:50:03.620Z,1028.97
2017-12-06T05:55:03.100Z,1028.94
2017-12-06T06:00:03.534Z,1028.95
2017-12-06T06:05:03.126Z,1029.01
2017-12-06T06:10:03.536Z,1028.99
2017-12-06T06:15:02.930Z,1029.03
2017-12-06T06:20:03.385Z,1029.07
2017-12-06T06:25:02.867Z,1029.01
2017-12-06T06:30:03.435Z,1029.09
2017-12-06T06:35:02.960Z,1029.04
2017-12-06T06:40:03.423Z,1029.01
2017-12-06T06:45:02.770Z,1029
2017-12-06T06:50:03.367Z,1028.96
2017-12-06T06:55:02.910Z,1028.98
2017-12-06T07:00:03.539Z,1028.88
2017-12-06T07:05:02.953Z,1028.96
2017-12-06T07:10:03.591Z,1028.89
2017-12-06T07:15:03.110Z,1028.89
2017-12-06T07:20:02.722Z,1028.85
2017-12-06T07:25:03.072Z,1028.85
2017-12-06T07:30:03.452Z,1028.97
2017-12-06T07:35:03.001Z,1028.96
2017-12-06T07:40:03.476Z,1028.95
2017-12-06T07:45:03.120Z,1028.93
2017-12-06T07:50:03.543Z,1028.94
2017-12-06T07:55:02.937Z,1029.11
2017-12-06T08:00:03.589Z,1028.99
2017-12-06T08:05:03.165Z,1028.98
2017-12-06T08:10:03.616Z,1029.07
2017-12-06T08:15:03.027Z,1028.89
2017-12-06T08:20:03.643Z,1028.88
2017-12-06T08:25:03.414Z,1028.88
2017-12-06T08:30:02.873Z,1028.92
2017-12-06T08:35:03.424Z,1028.92
2017-12-06T08:40:02.833Z,1029.03
2017-12-06T08:45:03.374Z,1029.02
2017-12-06T08:50:02.948Z,1029.04
2017-12-06T08:55:03.401Z,1028.99
2017-12-06T09:00:03.033Z,1028.98
2017-12-06T09:05:03.445Z,1028.92
2017-12-06T09:10:02.981Z,1028.89
2017-12-06T09:15:03.395Z,1028.92
2017-12-06T09:20:02.924Z,1028.96
2017-12-06T09:25:03.510Z,1028.98
2017-12-06T09:30:02.870Z,1028.93
2017-12-06T09:35:03.412Z,1029.03
2017-12-06T09:40:03.119Z,1029.03
2017-12-06T09:45:02.720Z,1029
2017-12-06T09:50:03.186Z,1029.07
2017-12-06T09:55:02.722Z,1029.01
2017-12-06T10:00:03.098Z,1029.09
2017-12-06T10:05:02.714Z,1029.11
2017-12-06T10:10:03.258Z,1029.12
2017-12-06T10:15:02.870Z,1029.08
2017-12-06T10:20:03.551Z,1028.98
2017-12-06T10:25:02.951Z,1029.08
2017-12-06T10:30:03.478Z,1028.94
2017-12-06T10:35:02.940Z,1028.98
2017-12-06T10:40:03.362Z,1028.9
2017-12-06T10:45:02.839Z,1028.92
2017-12-06T10:50:03.291Z,1028.72
2017-12-06T10:55:02.770Z,1028.69
2017-12-06T11:00:03.142Z,1028.7
2017-12-06T11:05:02.725Z,1028.71
2017-12-06T11:10:03.205Z,1028.7
2017-12-06T11:15:02.727Z,1028.71
2017-12-06T11:20:03.361Z,1028.62
2017-12-06T11:25:02.816Z,1028.54
2017-12-06T11:30:03.364Z,1028.56
2017-12-06T11:35:02.979Z,1028.49
2017-12-06T11:40:03.409Z,1028.4
2017-12-06T11:45:02.997Z,1028.35
2017-12-06T11:50:03.667Z,1028.36
2017-12-06T11:55:03.303Z,1028.26
2017-12-06T12:00:02.880Z,1028.38
2017-12-06T12:05:03.399Z,1028.23
2017-12-06T12:10:02.922Z,1028.26
2017-12-06T12:15:03.463Z,1028.22
2017-12-06T12:20:02.866Z,1028.09
2017-12-06T12:25:03.441Z,1028.15
2017-12-06T12:30:02.944Z,1028.06
2017-12-06T12:35:03.387Z,1028.06
2017-12-06T12:40:03.048Z,1027.99
2017-12-06T12:45:03.662Z,1027.96
2017-12-06T12:50:03.330Z,1027.95
2017-12-06T12:55:02.925Z,1027.82
2017-12-06T13:00:03.528Z,1027.77
2017-12-06T13:05:03.057Z,1027.8
2017-12-06T13:10:03.621Z,1027.71
2017-12-06T13:15:03.012Z,1027.67
2017-12-06T13:20:03.589Z,1027.65
2017-12-06T13:25:03.086Z,1027.56
2017-12-06T13:30:03.666Z,1027.56
2017-12-06T13:35:03.323Z,1027.44
2017-12-06T13:40:02.960Z,1027.47
2017-12-06T13:45:03.389Z,1027.42
2017-12-06T13:50:02.867Z,1027.35
2017-12-06T13:55:03.405Z,1027.39
2017-12-06T14:00:02.862Z,1027.31
2017-12-06T14:05:03.390Z,1027.19
2017-12-06T14:10:02.890Z,1027.22
2017-12-06T14:15:03.513Z,1027.21
2017-12-06T14:20:03.080Z,1027.22
2017-12-06T14:25:03.661Z,1027.19
2017-12-06T14:30:03.132Z,1027.12
2017-12-06T14:35:03.567Z,1027.1
2017-12-06T14:40:03.166Z,1027.15
2017-12-06T14:45:02.802Z,1027.09
2017-12-06T14:50:03.353Z,1027.07
2017-12-06T14:55:02.805Z,1026.98
2017-12-06T15:00:03.309Z,1027.03
2017-12-06T15:05:02.734Z,1026.99
2017-12-06T15:10:03.322Z,1026.97
2017-12-06T15:15:02.720Z,1027.06
2017-12-06T15:20:03.260Z,1026.96
2017-12-06T15:25:02.885Z,1026.91
2017-12-06T15:30:03.362Z,1026.98
2017-12-06T15:35:02.774Z,1026.95
2017-12-06T15:40:03.340Z,1026.81
2017-12-06T15:45:03.130Z,1026.86
2017-12-06T15:50:03.619Z,1026.85
2017-12-06T15:55:03.025Z,1026.8
2017-12-06T16:00:03.613Z,1026.8
2017-12-06T16:05:03.144Z,1026.63
2017-12-06T16:10:02.762Z,1026.74
2017-12-06T16:15:03.284Z,1026.65
2017-12-06T16:20:03.743Z,1026.75
2017-12-06T16:25:03.296Z,1026.64
2017-12-06T16:30:03.675Z,1026.57
2017-12-06T16:35:03.121Z,1026.7
2017-12-06T16:40:03.643Z,1026.6
2017-12-06T16:45:03.156Z,1026.59
2017-12-06T16:50:02.726Z,1026.53
2017-12-06T16:55:03.136Z,1026.46
2017-12-06T17:00:03.647Z,1026.51
2017-12-06T17:05:03.133Z,1026.45
2017-12-06T17:10:03.633Z,1026.46
2017-12-06T17:15:03.227Z,1026.41
2017-12-06T17:20:02.713Z,1026.55
2017-12-06T17:25:03.272Z,1026.4
2017-12-06T17:30:02.845Z,1026.41
2017-12-06T17:35:03.460Z,1026.24
2017-12-06T17:40:03.091Z,1026.18
2017-12-06T17:45:03.490Z,1026.14
2017-12-06T17:50:02.939Z,1026.11
2017-12-06T17:55:03.499Z,1026.09
2017-12-06T18:00:03.121Z,1026.01
2017-12-06T18:05:02.741Z,1025.93
2017-12-06T18:10:03.312Z,1025.93
2017-12-06T18:15:03.011Z,1025.86
2017-12-06T18:20:02.745Z,1025.81
2017-12-06T18:25:03.247Z,1025.76
2017-12-06T18:30:03.670Z,1025.68
2017-12-06T18:35:03.340Z,1025.72
2017-12-06T18:40:02.895Z,1025.77
2017-12-06T18:45:03.527Z,1025.72
2017-12-06T18:50:03.119Z,1025.67
2017-12-06T18:55:03.494Z,1025.78
2017-12-06T19:00:02.911Z,1025.6
2017-12-06T19:05:03.508Z,1025.56
2017-12-06T19:10:03.031Z,1025.63
2017-12-06T19:15:03.366Z,1025.47
2017-12-06T19:20:02.886Z,1025.44
2017-12-06T19:25:03.317Z,1025.4
2017-12-06T19:30:02.937Z,1025.45
2017-12-06T19:35:03.646Z,1025.37
2017-12-06T19:40:03.301Z,1025.26
2017-12-06T19:45:02.688Z,1025.22
2017-12-06T19:50:03.296Z,1025.18
2017-12-06T19:55:02.742Z,1025.22
2017-12-06T20:00:03.165Z,1025.07
2017-12-06T20:05:02.770Z,1025.05
2017-12-06T20:10:03.551Z,1024.93
2017-12-06T20:15:02.998Z,1024.95
2017-12-06T20:20:03.551Z,1024.89
2017-12-06T20:25:03.026Z,1024.9
2017-12-06T20:30:03.592Z,1024.85
2017-12-06T20:35:03.042Z,1024.8
2017-12-06T20:40:02.723Z,1024.65
2017-12-06T20:45:03.321Z,1024.62
2017-12-06T20:50:03.028Z,1024.55
2017-12-06T20:55:03.504Z,1024.65
2017-12-06T21:00:02.941Z,1024.54
2017-12-06T21:05:03.470Z,1024.47
2017-12-06T21:10:02.947Z,1024.55
2017-12-06T21:15:03.386Z,1024.61
2017-12-06T21:20:03.030Z,1024.58
2017-12-06T21:25:03.426Z,1024.43
2017-12-06T21:30:02.965Z,1024.34
2017-12-06T21:35:03.496Z,1024.29
2017-12-06T21:40:02.946Z,1024.27
2017-12-06T21:45:03.503Z,1024.12
2017-12-06T21:50:02.934Z,1024.13
2017-12-06T21:55:03.344Z,1024.13
2017-12-06T22:00:02.989Z,1024.12
2017-12-06T22:05:03.628Z,1023.94
2017-12-06T22:10:03.260Z,1023.8
2017-12-06T22:15:02.841Z,1023.75
2017-12-06T22:20:03.376Z,1023.79
2017-12-06T22:25:02.808Z,1023.59
2017-12-06T22:30:03.286Z,1023.46
2017-12-06T22:35:02.790Z,1023.43
2017-12-06T22:40:03.371Z,1023.33
2017-12-06T22:45:02.983Z,1023.25
2017-12-06T22:50:03.375Z,1023.23
2017-12-06T22:55:02.774Z,1023.26
2017-12-06T23:00:03.134Z,1023.08
2017-12-06T23:05:03.495Z,1023.07
2017-12-06T23:10:03.101Z,1022.95
2017-12-06T23:15:03.270Z,1022.98
2017-12-06T23:20:02.753Z,1022.8
2017-12-06T23:25:03.292Z,1022.85
2017-12-06T23:30:02.787Z,1022.86
2017-12-06T23:35:03.383Z,1022.66
2017-12-06T23:40:03.021Z,1022.57
2017-12-06T23:45:03.549Z,1022.58
2017-12-06T23:50:03.000Z,1022.57
2017-12-06T23:55:03.467Z,1022.54
